sensor_id;sensor_type;location;lat;lon;timestamp;pressure;altitude;pressure_sealevel;temperature;humidity
64853;BME280;56050;55.558;-4.644;2023-12-04T00:01:30;100806.50;;;3.30;73.58
64853;BME280;56050;55.558;-4.644;2023-12-04T00:03:56;100803.06;;;3.30;73.43
64853;BME280;56050;55.558;-4.644;2023-12-04T00:06:21;100798.09;;;3.28;73.63
64853;BME280;56050;55.558;-4.644;2023-12-04T00:08:47;100787.44;;;3.28;73.80
64853;BME280;56050;55.558;-4.644;2023-12-04T00:11:13;100782.88;;;3.29;73.87
64853;BME280;56050;55.558;-4.644;2023-12-04T00:13:38;100782.56;;;3.30;73.92
64853;BME280;56050;55.558;-4.644;2023-12-04T00:16:04;100779.88;;;3.30;73.67
64853;BME280;56050;55.558;-4.644;2023-12-04T00:18:29;100780.31;;;3.32;73.82
64853;BME280;56050;55.558;-4.644;2023-12-04T00:20:55;100784.19;;;3.35;73.99
64853;BME280;56050;55.558;-4.644;2023-12-04T00:23:20;100777.41;;;3.37;73.96
64853;BME280;56050;55.558;-4.644;2023-12-04T00:25:46;100772.88;;;3.38;73.95
64853;BME280;56050;55.558;-4.644;2023-12-04T00:28:11;100764.88;;;3.38;73.89
64853;BME280;56050;55.558;-4.644;2023-12-04T00:30:36;100756.47;;;3.36;73.88
64853;BME280;56050;55.558;-4.644;2023-12-04T00:33:02;100742.38;;;3.35;73.96
64853;BME280;56050;55.558;-4.644;2023-12-04T00:35:27;100746.84;;;3.31;73.96
64853;BME280;56050;55.558;-4.644;2023-12-04T00:37:53;100748.72;;;3.31;74.04
64853;BME280;56050;55.558;-4.644;2023-12-04T00:40:18;100748.25;;;3.29;74.11
64853;BME280;56050;55.558;-4.644;2023-12-04T00:42:44;100755.50;;;3.28;73.99
64853;BME280;56050;55.558;-4.644;2023-12-04T00:45:09;100740.28;;;3.29;73.89
64853;BME280;56050;55.558;-4.644;2023-12-04T00:47:34;100732.75;;;3.31;74.08
64853;BME280;56050;55.558;-4.644;2023-12-04T00:50:00;100737.41;;;3.34;73.98
64853;BME280;56050;55.558;-4.644;2023-12-04T00:52:25;100738.63;;;3.36;74.00
64853;BME280;56050;55.558;-4.644;2023-12-04T00:54:51;100733.72;;;3.38;73.74
64853;BME280;56050;55.558;-4.644;2023-12-04T00:57:16;100736.03;;;3.40;73.91
64853;BME280;56050;55.558;-4.644;2023-12-04T00:59:42;100733.84;;;3.42;73.90
64853;BME280;56050;55.558;-4.644;2023-12-04T01:02:07;100728.16;;;3.43;73.85
64853;BME280;56050;55.558;-4.644;2023-12-04T01:04:33;100726.69;;;3.46;73.77
64853;BME280;56050;55.558;-4.644;2023-12-04T01:06:58;100726.38;;;3.47;73.79
64853;BME280;56050;55.558;-4.644;2023-12-04T01:09:24;100717.25;;;3.48;73.94
64853;BME280;56050;55.558;-4.644;2023-12-04T01:11:52;100722.69;;;3.52;73.96
64853;BME280;56050;55.558;-4.644;2023-12-04T01:14:18;100716.59;;;3.51;73.85
64853;BME280;56050;55.558;-4.644;2023-12-04T01:16:43;100715.47;;;3.52;73.75
64853;BME280;56050;55.558;-4.644;2023-12-04T01:19:09;100720.47;;;3.54;73.75
64853;BME280;56050;55.558;-4.644;2023-12-04T01:21:35;100713.69;;;3.56;73.94
64853;BME280;56050;55.558;-4.644;2023-12-04T01:24:00;100706.47;;;3.57;73.84
64853;BME280;56050;55.558;-4.644;2023-12-04T01:26:26;100702.34;;;3.60;73.94
64853;BME280;56050;55.558;-4.644;2023-12-04T01:28:51;100707.78;;;3.63;74.01
64853;BME280;56050;55.558;-4.644;2023-12-04T01:31:17;100702.56;;;3.67;73.72
64853;BME280;56050;55.558;-4.644;2023-12-04T01:33:42;100703.00;;;3.69;73.71
64853;BME280;56050;55.558;-4.644;2023-12-04T01:36:08;100702.31;;;3.72;73.95
64853;BME280;56050;55.558;-4.644;2023-12-04T01:38:33;100702.75;;;3.74;73.91
64853;BME280;56050;55.558;-4.644;2023-12-04T01:40:59;100696.72;;;3.77;73.82
64853;BME280;56050;55.558;-4.644;2023-12-04T01:43:24;100699.50;;;3.80;73.96
64853;BME280;56050;55.558;-4.644;2023-12-04T01:45:51;100696.16;;;3.83;73.76
64853;BME280;56050;55.558;-4.644;2023-12-04T01:48:17;100697.69;;;3.84;73.58
64853;BME280;56050;55.558;-4.644;2023-12-04T01:50:43;100695.47;;;3.86;73.78
64853;BME280;56050;55.558;-4.644;2023-12-04T01:53:09;100684.81;;;3.86;73.66
64853;BME280;56050;55.558;-4.644;2023-12-04T01:55:36;100689.38;;;3.86;73.68
64853;BME280;56050;55.558;-4.644;2023-12-04T01:58:03;100684.47;;;3.88;73.59
64853;BME280;56050;55.558;-4.644;2023-12-04T02:00:30;100684.47;;;3.88;73.73
64853;BME280;56050;55.558;-4.644;2023-12-04T02:02:56;100692.13;;;3.89;73.79
64853;BME280;56050;55.558;-4.644;2023-12-04T02:05:22;100673.91;;;3.91;73.79
64853;BME280;56050;55.558;-4.644;2023-12-04T02:07:48;100670.88;;;3.93;73.81
64853;BME280;56050;55.558;-4.644;2023-12-04T02:10:13;100674.00;;;3.95;73.76
64853;BME280;56050;55.558;-4.644;2023-12-04T02:12:39;100675.53;;;3.96;73.79
64853;BME280;56050;55.558;-4.644;2023-12-04T02:15:05;100675.09;;;3.94;73.72
64853;BME280;56050;55.558;-4.644;2023-12-04T02:17:31;100670.56;;;3.94;73.70
64853;BME280;56050;55.558;-4.644;2023-12-04T02:19:57;100662.56;;;3.94;73.71
64853;BME280;56050;55.558;-4.644;2023-12-04T02:22:23;100655.34;;;3.95;73.60
64853;BME280;56050;55.558;-4.644;2023-12-04T02:24:48;100648.03;;;3.92;73.59
64853;BME280;56050;55.558;-4.644;2023-12-04T02:29:52;100661.94;;;3.85;73.71
64853;BME280;56050;55.558;-4.644;2023-12-04T02:32:19;100648.97;;;3.84;73.61
64853;BME280;56050;55.558;-4.644;2023-12-04T02:34:47;100643.56;;;3.80;73.56
64853;BME280;56050;55.558;-4.644;2023-12-04T02:37:14;100657.13;;;3.75;73.82
64853;BME280;56050;55.558;-4.644;2023-12-04T02:39:42;100640.69;;;3.73;74.02
64853;BME280;56050;55.558;-4.644;2023-12-04T02:42:08;100644.13;;;3.74;74.03
64853;BME280;56050;55.558;-4.644;2023-12-04T02:44:34;100643.72;;;3.72;73.84
64853;BME280;56050;55.558;-4.644;2023-12-04T02:47:00;100647.81;;;3.69;74.08
64853;BME280;56050;55.558;-4.644;2023-12-04T02:49:25;100647.72;;;3.66;74.03
64853;BME280;56050;55.558;-4.644;2023-12-04T02:51:50;100644.63;;;3.64;74.10
64853;BME280;56050;55.558;-4.644;2023-12-04T02:54:16;100635.44;;;3.61;73.91
64853;BME280;56050;55.558;-4.644;2023-12-04T02:56:41;100640.66;;;3.58;74.13
64853;BME280;56050;55.558;-4.644;2023-12-04T02:59:07;100634.47;;;3.53;74.18
64853;BME280;56050;55.558;-4.644;2023-12-04T03:01:32;100631.72;;;3.50;74.16
64853;BME280;56050;55.558;-4.644;2023-12-04T03:03:58;100638.06;;;3.45;74.21
64853;BME280;56050;55.558;-4.644;2023-12-04T03:06:23;100635.31;;;3.42;74.25
64853;BME280;56050;55.558;-4.644;2023-12-04T03:08:48;100635.63;;;3.40;74.12
64853;BME280;56050;55.558;-4.644;2023-12-04T03:11:14;100628.31;;;3.37;74.08
64853;BME280;56050;55.558;-4.644;2023-12-04T03:13:39;100635.09;;;3.35;74.19
64853;BME280;56050;55.558;-4.644;2023-12-04T03:16:05;100627.81;;;3.32;74.14
64853;BME280;56050;55.558;-4.644;2023-12-04T03:18:30;100630.81;;;3.30;74.24
64853;BME280;56050;55.558;-4.644;2023-12-04T03:20:56;100624.72;;;3.30;74.47
64853;BME280;56050;55.558;-4.644;2023-12-04T03:23:21;100627.63;;;3.25;74.34
64853;BME280;56050;55.558;-4.644;2023-12-04T03:25:47;100623.75;;;3.22;74.32
64853;BME280;56050;55.558;-4.644;2023-12-04T03:28:12;100622.19;;;3.21;74.43
64853;BME280;56050;55.558;-4.644;2023-12-04T03:30:41;100627.41;;;3.18;74.47
64853;BME280;56050;55.558;-4.644;2023-12-04T03:33:10;100631.97;;;3.17;74.60
64853;BME280;56050;55.558;-4.644;2023-12-04T03:35:36;100625.09;;;3.16;74.69
64853;BME280;56050;55.558;-4.644;2023-12-04T03:38:01;100621.22;;;3.14;74.79
64853;BME280;56050;55.558;-4.644;2023-12-04T03:40:26;100624.66;;;3.14;74.68
64853;BME280;56050;55.558;-4.644;2023-12-04T03:42:52;100619.34;;;3.14;74.73
64853;BME280;56050;55.558;-4.644;2023-12-04T03:45:17;100617.78;;;3.13;74.75
64853;BME280;56050;55.558;-4.644;2023-12-04T03:47:43;100610.91;;;3.12;74.65
64853;BME280;56050;55.558;-4.644;2023-12-04T03:50:08;100618.13;;;3.12;74.52
64853;BME280;56050;55.558;-4.644;2023-12-04T03:52:34;100625.34;;;3.11;74.64
64853;BME280;56050;55.558;-4.644;2023-12-04T03:54:59;100608.94;;;3.09;74.66
64853;BME280;56050;55.558;-4.644;2023-12-04T03:57:24;100608.16;;;3.09;74.56
64853;BME280;56050;55.558;-4.644;2023-12-04T03:59:50;100613.50;;;3.09;74.61
64853;BME280;56050;55.558;-4.644;2023-12-04T04:02:15;100613.50;;;3.09;74.65
64853;BME280;56050;55.558;-4.644;2023-12-04T04:04:41;100610.03;;;3.08;74.63
64853;BME280;56050;55.558;-4.644;2023-12-04T04:07:06;100611.16;;;3.07;74.43
64853;BME280;56050;55.558;-4.644;2023-12-04T04:09:32;100605.75;;;3.04;74.52
64853;BME280;56050;55.558;-4.644;2023-12-04T04:11:57;100613.72;;;3.04;74.55
64853;BME280;56050;55.558;-4.644;2023-12-04T04:14:22;100615.63;;;3.03;74.63
64853;BME280;56050;55.558;-4.644;2023-12-04T04:16:49;100618.28;;;3.03;74.63
64853;BME280;56050;55.558;-4.644;2023-12-04T04:19:15;100612.94;;;3.03;74.67
64853;BME280;56050;55.558;-4.644;2023-12-04T04:21:40;100615.16;;;3.01;74.53
64853;BME280;56050;55.558;-4.644;2023-12-04T04:24:06;100614.72;;;2.99;74.44
64853;BME280;56050;55.558;-4.644;2023-12-04T04:26:31;100599.91;;;2.98;74.76
64853;BME280;56050;55.558;-4.644;2023-12-04T04:28:58;100599.44;;;2.96;74.77
64853;BME280;56050;55.558;-4.644;2023-12-04T04:31:23;100600.88;;;2.93;74.58
64853;BME280;56050;55.558;-4.644;2023-12-04T04:33:49;100593.25;;;2.92;74.67
64853;BME280;56050;55.558;-4.644;2023-12-04T04:36:14;100597.78;;;2.91;74.77
64853;BME280;56050;55.558;-4.644;2023-12-04T04:38:39;100595.44;;;2.90;74.72
64853;BME280;56050;55.558;-4.644;2023-12-04T04:41:05;100585.94;;;2.89;74.81
64853;BME280;56050;55.558;-4.644;2023-12-04T04:43:32;100593.50;;;2.87;74.96
64853;BME280;56050;55.558;-4.644;2023-12-04T04:45:58;100599.56;;;2.87;74.88
64853;BME280;56050;55.558;-4.644;2023-12-04T04:48:23;100588.94;;;2.87;74.88
64853;BME280;56050;55.558;-4.644;2023-12-04T04:50:48;100593.94;;;2.89;74.85
64853;BME280;56050;55.558;-4.644;2023-12-04T04:53:14;100590.84;;;2.87;74.79
64853;BME280;56050;55.558;-4.644;2023-12-04T04:55:40;100588.19;;;2.87;74.73
64853;BME280;56050;55.558;-4.644;2023-12-04T04:58:05;100586.25;;;2.87;74.81
64853;BME280;56050;55.558;-4.644;2023-12-04T05:00:30;100589.72;;;2.88;74.70
64853;BME280;56050;55.558;-4.644;2023-12-04T05:02:56;100593.16;;;2.88;74.79
64853;BME280;56050;55.558;-4.644;2023-12-04T05:05:21;100596.59;;;2.89;74.96
64853;BME280;56050;55.558;-4.644;2023-12-04T05:07:47;100601.56;;;2.90;74.56
64853;BME280;56050;55.558;-4.644;2023-12-04T05:10:12;100594.69;;;2.89;74.75
64853;BME280;56050;55.558;-4.644;2023-12-04T05:12:37;100596.59;;;2.89;74.69
64853;BME280;56050;55.558;-4.644;2023-12-04T05:15:03;100597.38;;;2.89;74.85
64853;BME280;56050;55.558;-4.644;2023-12-04T05:17:29;100597.38;;;2.89;74.67
64853;BME280;56050;55.558;-4.644;2023-12-04T05:19:54;100592.03;;;2.89;74.60
64853;BME280;56050;55.558;-4.644;2023-12-04T05:22:19;100590.47;;;2.88;74.77
64853;BME280;56050;55.558;-4.644;2023-12-04T05:24:45;100578.63;;;2.86;74.53
64853;BME280;56050;55.558;-4.644;2023-12-04T05:27:10;100583.84;;;2.82;74.61
64853;BME280;56050;55.558;-4.644;2023-12-04T05:29:36;100583.41;;;2.80;74.55
64853;BME280;56050;55.558;-4.644;2023-12-04T05:32:01;100588.31;;;2.78;74.51
64853;BME280;56050;55.558;-4.644;2023-12-04T05:34:27;100585.53;;;2.75;74.61
64853;BME280;56050;55.558;-4.644;2023-12-04T05:36:52;100584.31;;;2.72;74.59
64853;BME280;56050;55.558;-4.644;2023-12-04T05:39:17;100580.47;;;2.70;74.42
64853;BME280;56050;55.558;-4.644;2023-12-04T05:41:43;100590.66;;;2.68;74.46
64853;BME280;56050;55.558;-4.644;2023-12-04T05:44:08;100588.31;;;2.66;74.66
64853;BME280;56050;55.558;-4.644;2023-12-04T05:46:34;100594.00;;;2.65;74.47
64853;BME280;56050;55.558;-4.644;2023-12-04T05:48:59;100592.00;;;2.62;74.26
64853;BME280;56050;55.558;-4.644;2023-12-04T05:51:25;100595.31;;;2.59;74.38
64853;BME280;56050;55.558;-4.644;2023-12-04T05:53:50;100593.78;;;2.58;74.51
64853;BME280;56050;55.558;-4.644;2023-12-04T05:56:15;100594.91;;;2.57;74.75
64853;BME280;56050;55.558;-4.644;2023-12-04T05:58:41;100585.34;;;2.56;74.65
64853;BME280;56050;55.558;-4.644;2023-12-04T06:01:07;100589.13;;;2.55;74.51
64853;BME280;56050;55.558;-4.644;2023-12-04T06:03:32;100581.50;;;2.53;74.47
64853;BME280;56050;55.558;-4.644;2023-12-04T06:05:58;100584.94;;;2.54;74.44
64853;BME280;56050;55.558;-4.644;2023-12-04T06:08:23;100578.06;;;2.53;74.73
64853;BME280;56050;55.558;-4.644;2023-12-04T06:10:49;100578.06;;;2.53;74.90
64853;BME280;56050;55.558;-4.644;2023-12-04T06:13:14;100579.16;;;2.52;74.84
64853;BME280;56050;55.558;-4.644;2023-12-04T06:15:40;100581.72;;;2.48;74.63
64853;BME280;56050;55.558;-4.644;2023-12-04T06:18:05;100579.72;;;2.45;74.81
64853;BME280;56050;55.558;-4.644;2023-12-04T06:20:31;100581.59;;;2.45;74.58
64853;BME280;56050;55.558;-4.644;2023-12-04T06:22:56;100584.94;;;2.42;74.76
64853;BME280;56050;55.558;-4.644;2023-12-04T06:25:22;100594.00;;;2.41;74.80
64853;BME280;56050;55.558;-4.644;2023-12-04T06:27:48;100589.03;;;2.39;74.93
64853;BME280;56050;55.558;-4.644;2023-12-04T06:30:14;100582.94;;;2.38;74.83
64853;BME280;56050;55.558;-4.644;2023-12-04T06:32:40;100581.84;;;2.40;74.84
64853;BME280;56050;55.558;-4.644;2023-12-04T06:35:06;100582.63;;;2.40;74.95
64853;BME280;56050;55.558;-4.644;2023-12-04T06:37:31;100579.97;;;2.40;74.92
64853;BME280;56050;55.558;-4.644;2023-12-04T06:39:59;100576.19;;;2.41;74.90
64853;BME280;56050;55.558;-4.644;2023-12-04T06:42:25;100578.84;;;2.41;75.07
64853;BME280;56050;55.558;-4.644;2023-12-04T06:44:51;100588.81;;;2.44;75.00
64853;BME280;56050;55.558;-4.644;2023-12-04T06:47:20;100583.50;;;2.44;75.03
64853;BME280;56050;55.558;-4.644;2023-12-04T06:49:47;100588.13;;;2.47;75.05
64853;BME280;56050;55.558;-4.644;2023-12-04T06:52:12;100590.56;;;2.52;75.02
64853;BME280;56050;55.558;-4.644;2023-12-04T06:54:38;100583.47;;;2.56;74.88
64853;BME280;56050;55.558;-4.644;2023-12-04T06:57:03;100582.47;;;2.61;74.92
64853;BME280;56050;55.558;-4.644;2023-12-04T06:59:29;100590.56;;;2.64;74.87
64853;BME280;56050;55.558;-4.644;2023-12-04T07:01:55;100591.09;;;2.70;74.63
64853;BME280;56050;55.558;-4.644;2023-12-04T07:04:20;100590.06;;;2.74;74.73
64853;BME280;56050;55.558;-4.644;2023-12-04T07:06:47;100590.63;;;2.80;74.90
64853;BME280;56050;55.558;-4.644;2023-12-04T07:09:16;100593.81;;;2.85;74.83
64853;BME280;56050;55.558;-4.644;2023-12-04T07:11:45;100589.03;;;2.91;74.72
64853;BME280;56050;55.558;-4.644;2023-12-04T07:14:11;100591.44;;;2.96;74.60
64853;BME280;56050;55.558;-4.644;2023-12-04T07:16:43;100579.47;;;3.02;74.70
64853;BME280;56050;55.558;-4.644;2023-12-04T07:19:09;100587.97;;;3.08;74.68
64853;BME280;56050;55.558;-4.644;2023-12-04T07:21:36;100587.72;;;3.13;74.72
64853;BME280;56050;55.558;-4.644;2023-12-04T07:24:02;100582.94;;;3.18;74.84
64853;BME280;56050;55.558;-4.644;2023-12-04T07:26:27;100572.50;;;3.25;74.92
64853;BME280;56050;55.558;-4.644;2023-12-04T07:28:53;100577.22;;;3.32;74.74
64853;BME280;56050;55.558;-4.644;2023-12-04T07:31:19;100574.34;;;3.37;74.65
64853;BME280;56050;55.558;-4.644;2023-12-04T07:33:44;100573.31;;;3.41;74.79
64853;BME280;56050;55.558;-4.644;2023-12-04T07:36:10;100577.94;;;3.44;74.74
64853;BME280;56050;55.558;-4.644;2023-12-04T07:38:35;100571.94;;;3.47;74.87
64853;BME280;56050;55.558;-4.644;2023-12-04T07:41:01;100575.03;;;3.49;74.74
64853;BME280;56050;55.558;-4.644;2023-12-04T07:43:26;100570.13;;;3.51;74.72
64853;BME280;56050;55.558;-4.644;2023-12-04T07:45:54;100572.09;;;3.54;74.94
64853;BME280;56050;55.558;-4.644;2023-12-04T07:48:20;100575.97;;;3.57;74.94
64853;BME280;56050;55.558;-4.644;2023-12-04T07:50:45;100588.72;;;3.64;74.93
64853;BME280;56050;55.558;-4.644;2023-12-04T07:53:10;100587.66;;;3.68;74.76
64853;BME280;56050;55.558;-4.644;2023-12-04T07:55:37;100579.41;;;3.73;74.58
64853;BME280;56050;55.558;-4.644;2023-12-04T07:58:02;100581.41;;;3.76;74.62
64853;BME280;56050;55.558;-4.644;2023-12-04T08:00:28;100574.59;;;3.79;74.81
64853;BME280;56050;55.558;-4.644;2023-12-04T08:02:53;100587.25;;;3.82;74.77
64853;BME280;56050;55.558;-4.644;2023-12-04T08:05:19;100584.25;;;3.83;74.63
64853;BME280;56050;55.558;-4.644;2023-12-04T08:07:44;100591.56;;;3.86;74.84
64853;BME280;56050;55.558;-4.644;2023-12-04T08:10:10;100594.66;;;3.88;74.82
64853;BME280;56050;55.558;-4.644;2023-12-04T08:12:35;100605.03;;;3.93;74.73
64853;BME280;56050;55.558;-4.644;2023-12-04T08:15:02;100598.25;;;3.96;74.75
64853;BME280;56050;55.558;-4.644;2023-12-04T08:17:28;100604.00;;;3.98;74.49
64853;BME280;56050;55.558;-4.644;2023-12-04T08:19:53;100598.69;;;3.98;74.77
64853;BME280;56050;55.558;-4.644;2023-12-04T08:22:19;100592.91;;;3.96;74.65
64853;BME280;56050;55.558;-4.644;2023-12-04T08:24:45;100599.72;;;3.93;74.69
64853;BME280;56050;55.558;-4.644;2023-12-04T08:27:10;100598.50;;;3.91;74.65
64853;BME280;56050;55.558;-4.644;2023-12-04T08:29:36;100594.97;;;3.87;74.62
64853;BME280;56050;55.558;-4.644;2023-12-04T08:32:01;100602.53;;;3.85;74.59
64853;BME280;56050;55.558;-4.644;2023-12-04T08:34:26;100603.22;;;3.82;74.59
64853;BME280;56050;55.558;-4.644;2023-12-04T08:36:52;100610.13;;;3.83;74.83
64853;BME280;56050;55.558;-4.644;2023-12-04T08:39:18;100596.03;;;3.82;74.86
64853;BME280;56050;55.558;-4.644;2023-12-04T08:41:46;100594.13;;;3.83;75.05
64853;BME280;56050;55.558;-4.644;2023-12-04T08:44:14;100594.13;;;3.83;74.90
64853;BME280;56050;55.558;-4.644;2023-12-04T08:46:41;100592.56;;;3.82;74.94
64853;BME280;56050;55.558;-4.644;2023-12-04T08:49:06;100600.16;;;3.80;75.03
64853;BME280;56050;55.558;-4.644;2023-12-04T08:51:32;100603.91;;;3.79;75.02
64853;BME280;56050;55.558;-4.644;2023-12-04T08:53:57;100606.94;;;3.77;74.97
64853;BME280;56050;55.558;-4.644;2023-12-04T08:56:23;100616.03;;;3.76;74.94
64853;BME280;56050;55.558;-4.644;2023-12-04T08:58:48;100612.94;;;3.74;74.88
64853;BME280;56050;55.558;-4.644;2023-12-04T09:01:15;100615.97;;;3.73;75.08
64853;BME280;56050;55.558;-4.644;2023-12-04T09:03:41;100617.41;;;3.70;74.99
64853;BME280;56050;55.558;-4.644;2023-12-04T09:06:06;100612.78;;;3.67;74.96
64853;BME280;56050;55.558;-4.644;2023-12-04T09:08:32;100610.34;;;3.62;74.78
64853;BME280;56050;55.558;-4.644;2023-12-04T09:10:58;100627.34;;;3.58;74.76
64853;BME280;56050;55.558;-4.644;2023-12-04T09:13:23;100620.72;;;3.51;74.70
64853;BME280;56050;55.558;-4.644;2023-12-04T09:15:49;100610.31;;;3.46;74.75
64853;BME280;56050;55.558;-4.644;2023-12-04T09:18:14;100619.00;;;3.43;75.06
64853;BME280;56050;55.558;-4.644;2023-12-04T09:20:41;100621.66;;;3.43;75.14
64853;BME280;56050;55.558;-4.644;2023-12-04T09:23:06;100625.09;;;3.44;75.04
64853;BME280;56050;55.558;-4.644;2023-12-04T09:25:32;100628.28;;;3.49;75.14
64853;BME280;56050;55.558;-4.644;2023-12-04T09:27:57;100621.50;;;3.52;75.07
64853;BME280;56050;55.558;-4.644;2023-12-04T09:30:22;100631.47;;;3.55;75.08
64853;BME280;56050;55.558;-4.644;2023-12-04T09:32:48;100632.25;;;3.55;74.90
64853;BME280;56050;55.558;-4.644;2023-12-04T09:35:13;100630.69;;;3.54;75.14
64853;BME280;56050;55.558;-4.644;2023-12-04T09:37:40;100630.69;;;3.54;75.13
64853;BME280;56050;55.558;-4.644;2023-12-04T09:40:06;100628.03;;;3.54;75.27
64853;BME280;56050;55.558;-4.644;2023-12-04T09:42:33;100642.13;;;3.55;75.16
64853;BME280;56050;55.558;-4.644;2023-12-04T09:44:59;100638.69;;;3.54;75.15
64853;BME280;56050;55.558;-4.644;2023-12-04T09:47:28;100643.69;;;3.56;74.91
64853;BME280;56050;55.558;-4.644;2023-12-04T09:49:56;100647.88;;;3.57;75.00
64853;BME280;56050;55.558;-4.644;2023-12-04T09:52:22;100644.22;;;3.62;75.01
64853;BME280;56050;55.558;-4.644;2023-12-04T09:54:47;100647.31;;;3.64;74.82
64853;BME280;56050;55.558;-4.644;2023-12-04T09:57:13;100651.94;;;3.67;74.96
64853;BME280;56050;55.558;-4.644;2023-12-04T09:59:40;100647.47;;;3.71;74.77
64853;BME280;56050;55.558;-4.644;2023-12-04T10:02:06;100644.56;;;3.76;74.83
64853;BME280;56050;55.558;-4.644;2023-12-04T10:04:32;100644.66;;;3.79;74.73
64853;BME280;56050;55.558;-4.644;2023-12-04T10:06:57;100645.53;;;3.83;74.78
64853;BME280;56050;55.558;-4.644;2023-12-04T10:09:23;100645.59;;;3.87;74.66
64853;BME280;56050;55.558;-4.644;2023-12-04T10:11:50;100643.47;;;3.92;74.67
64853;BME280;56050;55.558;-4.644;2023-12-04T10:14:21;100645.91;;;3.97;74.76
64853;BME280;56050;55.558;-4.644;2023-12-04T10:16:47;100643.28;;;4.01;74.79
64853;BME280;56050;55.558;-4.644;2023-12-04T10:21:45;100641.50;;;4.05;74.67
64853;BME280;56050;55.558;-4.644;2023-12-04T10:24:11;100641.84;;;4.03;74.70
64853;BME280;56050;55.558;-4.644;2023-12-04T10:26:37;100631.09;;;4.00;74.73
64853;BME280;56050;55.558;-4.644;2023-12-04T10:29:03;100644.44;;;4.00;74.87
64853;BME280;56050;55.558;-4.644;2023-12-04T10:31:33;100635.66;;;3.99;74.92
64853;BME280;56050;55.558;-4.644;2023-12-04T10:34:00;100640.63;;;4.01;74.95
64853;BME280;56050;55.558;-4.644;2023-12-04T10:36:25;100640.31;;;4.02;74.94
64853;BME280;56050;55.558;-4.644;2023-12-04T10:39:00;100625.50;;;4.05;75.20
64853;BME280;56050;55.558;-4.644;2023-12-04T10:41:26;100637.00;;;4.09;75.26
64853;BME280;56050;55.558;-4.644;2023-12-04T10:43:51;100635.22;;;4.13;75.14
64853;BME280;56050;55.558;-4.644;2023-12-04T10:46:18;100637.63;;;4.18;75.00
64853;BME280;56050;55.558;-4.644;2023-12-04T10:48:48;100633.84;;;4.19;75.13
64853;BME280;56050;55.558;-4.644;2023-12-04T10:51:15;100635.84;;;4.22;75.26
64853;BME280;56050;55.558;-4.644;2023-12-04T10:53:42;100640.81;;;4.24;75.30
64853;BME280;56050;55.558;-4.644;2023-12-04T10:56:19;100633.59;;;4.24;75.54
64853;BME280;56050;55.558;-4.644;2023-12-04T10:58:49;100631.00;;;4.28;75.37
64853;BME280;56050;55.558;-4.644;2023-12-04T11:01:16;100632.22;;;4.30;75.51
64853;BME280;56050;55.558;-4.644;2023-12-04T11:03:52;100628.91;;;4.37;75.43
64853;BME280;56050;55.558;-4.644;2023-12-04T11:06:22;100627.53;;;4.43;75.37
64853;BME280;56050;55.558;-4.644;2023-12-04T11:08:49;100630.28;;;4.46;75.20
64853;BME280;56050;55.558;-4.644;2023-12-04T11:11:27;100620.03;;;4.48;75.26
64853;BME280;56050;55.558;-4.644;2023-12-04T11:13:56;100623.91;;;4.51;75.25
64853;BME280;56050;55.558;-4.644;2023-12-04T11:21:39;100621.31;;;4.54;75.33
64853;BME280;56050;55.558;-4.644;2023-12-04T11:24:05;100625.28;;;4.60;75.36
64853;BME280;56050;55.558;-4.644;2023-12-04T11:26:32;100626.88;;;4.65;75.34
64853;BME280;56050;55.558;-4.644;2023-12-04T11:28:59;100619.75;;;4.69;75.17
64853;BME280;56050;55.558;-4.644;2023-12-04T11:31:25;100614.41;;;4.69;75.18
64853;BME280;56050;55.558;-4.644;2023-12-04T11:33:51;100612.59;;;4.73;75.33
64853;BME280;56050;55.558;-4.644;2023-12-04T11:36:16;100612.25;;;4.74;75.34
64853;BME280;56050;55.558;-4.644;2023-12-04T11:38:46;100619.97;;;4.80;75.39
64853;BME280;56050;55.558;-4.644;2023-12-04T11:41:19;100602.13;;;4.84;75.32
64853;BME280;56050;55.558;-4.644;2023-12-04T11:43:46;100613.66;;;4.88;75.40
64853;BME280;56050;55.558;-4.644;2023-12-04T11:46:13;100607.25;;;4.92;75.38
64853;BME280;56050;55.558;-4.644;2023-12-04T11:48:47;100620.31;;;4.97;75.23
64853;BME280;56050;55.558;-4.644;2023-12-04T11:51:15;100605.09;;;4.98;75.27
64853;BME280;56050;55.558;-4.644;2023-12-04T11:54:00;100614.72;;;5.02;75.47
64853;BME280;56050;55.558;-4.644;2023-12-04T11:56:25;100614.03;;;5.05;75.35
64853;BME280;56050;55.558;-4.644;2023-12-04T11:58:51;100615.63;;;5.10;75.38
64853;BME280;56050;55.558;-4.644;2023-12-04T12:01:20;100608.03;;;5.12;75.39
64853;BME280;56050;55.558;-4.644;2023-12-04T12:03:50;100609.69;;;5.16;75.42
64853;BME280;56050;55.558;-4.644;2023-12-04T12:06:16;100604.38;;;5.20;75.38
64853;BME280;56050;55.558;-4.644;2023-12-04T12:08:41;100607.91;;;5.24;75.36
64853;BME280;56050;55.558;-4.644;2023-12-04T12:11:07;100612.19;;;5.28;75.32
64853;BME280;56050;55.558;-4.644;2023-12-04T12:13:33;100608.81;;;5.31;75.40
64853;BME280;56050;55.558;-4.644;2023-12-04T12:15:58;100603.94;;;5.37;75.35
64853;BME280;56050;55.558;-4.644;2023-12-04T12:18:24;100603.25;;;5.40;75.49
64853;BME280;56050;55.558;-4.644;2023-12-04T12:20:50;100606.00;;;5.44;75.33
64853;BME280;56050;55.558;-4.644;2023-12-04T12:23:15;100603.03;;;5.49;75.16
64853;BME280;56050;55.558;-4.644;2023-12-04T12:25:41;100599.22;;;5.50;75.28
64853;BME280;56050;55.558;-4.644;2023-12-04T12:28:06;100601.19;;;5.53;75.22
64853;BME280;56050;55.558;-4.644;2023-12-04T12:30:33;100600.06;;;5.54;75.18
64853;BME280;56050;55.558;-4.644;2023-12-04T12:32:58;100601.63;;;5.55;75.21
64853;BME280;56050;55.558;-4.644;2023-12-04T12:35:24;100602.44;;;5.59;75.19
64853;BME280;56050;55.558;-4.644;2023-12-04T12:37:50;100608.19;;;5.61;75.15
64853;BME280;56050;55.558;-4.644;2023-12-04T12:40:20;100608.97;;;5.61;75.10
64853;BME280;56050;55.558;-4.644;2023-12-04T12:42:46;100611.31;;;5.63;75.20
64853;BME280;56050;55.558;-4.644;2023-12-04T12:45:12;100608.25;;;5.64;75.19
64853;BME280;56050;55.558;-4.644;2023-12-04T12:47:39;100599.53;;;5.67;75.14
64853;BME280;56050;55.558;-4.644;2023-12-04T12:50:08;100603.00;;;5.68;75.18
64853;BME280;56050;55.558;-4.644;2023-12-04T12:52:35;100596.16;;;5.70;75.22
64853;BME280;56050;55.558;-4.644;2023-12-04T12:55:02;100611.47;;;5.73;75.33